sensor_id;sensor_type;location;lat;lon;timestamp;pressure;altitude;pressure_sealevel;temperature;humidity
10466;BME280;5280;42.600;23.556;2023-06-26T00:02:16;93218.91;;;19.83;100.00
10466;BME280;5280;42.600;23.556;2023-06-26T00:04:43;93190.56;;;19.65;100.00
10466;BME280;5280;42.600;23.556;2023-06-26T00:07:10;93211.66;;;19.68;100.00
10466;BME280;5280;42.600;23.556;2023-06-26T00:09:37;93209.25;;;19.73;100.00
10466;BME280;5280;42.600;23.556;2023-06-26T00:12:06;93220.00;;;19.73;100.00
10466;BME280;5280;42.600;23.556;2023-06-26T00:14:33;93215.13;;;19.77;100.00
10466;BME280;5280;42.600;23.556;2023-06-26T00:17:02;93216.75;;;19.78;100.00
10466;BME280;5280;42.600;23.556;2023-06-26T00:19:29;93194.38;;;19.71;100.00
10466;BME280;5280;42.600;23.556;2023-06-26T00:21:56;93191.28;;;19.59;100.00
10466;BME280;5280;42.600;23.556;2023-06-26T00:24:23;93201.13;;;19.67;100.00
10466;BME280;5280;42.600;23.556;2023-06-26T00:26:50;93170.91;;;19.50;100.00
10466;BME280;5280;42.600;23.556;2023-06-26T00:29:18;93193.31;;;19.57;100.00
10466;BME280;5280;42.600;23.556;2023-06-26T00:31:46;93200.91;;;19.68;100.00
10466;BME280;5280;42.600;23.556;2023-06-26T00:34:12;93190.66;;;19.57;100.00
10466;BME280;5280;42.600;23.556;2023-06-26T00:36:40;93195.94;;;19.65;100.00
10466;BME280;5280;42.600;23.556;2023-06-26T00:39:09;93192.28;;;19.58;100.00
10466;BME280;5280;42.600;23.556;2023-06-26T00:41:38;93197.31;;;19.61;100.00
10466;BME280;5280;42.600;23.556;2023-06-26T00:44:05;93197.31;;;19.61;100.00
10466;BME280;5280;42.600;23.556;2023-06-26T00:46:34;93189.81;;;19.57;100.00
10466;BME280;5280;42.600;23.556;2023-06-26T00:49:02;93197.03;;;19.56;100.00
10466;BME280;5280;42.600;23.556;2023-06-26T00:51:30;93202.38;;;19.56;100.00
10466;BME280;5280;42.600;23.556;2023-06-26T00:53:57;93185.63;;;19.54;100.00
10466;BME280;5280;42.600;23.556;2023-06-26T00:56:24;93200.34;;;19.58;100.00
10466;BME280;5280;42.600;23.556;2023-06-26T00:58:51;93200.34;;;19.58;100.00
10466;BME280;5280;42.600;23.556;2023-06-26T01:01:18;93183.41;;;19.58;100.00
10466;BME280;5280;42.600;23.556;2023-06-26T01:03:51;93165.84;;;19.32;100.00
10466;BME280;5280;42.600;23.556;2023-06-26T01:06:22;93195.81;;;19.59;100.00
10466;BME280;5280;42.600;23.556;2023-06-26T01:08:50;93189.06;;;19.63;100.00
10466;BME280;5280;42.600;23.556;2023-06-26T01:11:18;93189.97;;;19.55;100.00
10466;BME280;5280;42.600;23.556;2023-06-26T01:13:46;93151.63;;;19.32;100.00
10466;BME280;5280;42.600;23.556;2023-06-26T01:16:14;93172.09;;;19.48;100.00
10466;BME280;5280;42.600;23.556;2023-06-26T01:18:44;93176.28;;;19.50;100.00
10466;BME280;5280;42.600;23.556;2023-06-26T01:21:16;93185.28;;;19.57;100.00
10466;BME280;5280;42.600;23.556;2023-06-26T01:23:58;93154.47;;;19.30;100.00
10466;BME280;5280;42.600;23.556;2023-06-26T01:26:32;93121.41;;;19.15;100.00
10466;BME280;5280;42.600;23.556;2023-06-26T01:29:03;93175.91;;;19.53;100.00
10466;BME280;5280;42.600;23.556;2023-06-26T01:31:31;93186.28;;;19.56;100.00
10466;BME280;5280;42.600;23.556;2023-06-26T01:33:58;93163.00;;;19.57;100.00
10466;BME280;5280;42.600;23.556;2023-06-26T01:36:27;93174.19;;;19.60;100.00
10466;BME280;5280;42.600;23.556;2023-06-26T01:38:54;93179.63;;;19.52;100.00
10466;BME280;5280;42.600;23.556;2023-06-26T01:41:21;93143.38;;;19.33;100.00
10466;BME280;5280;42.600;23.556;2023-06-26T01:44:11;93172.94;;;19.48;100.00
10466;BME280;5280;42.600;23.556;2023-06-26T01:46:40;93155.56;;;19.44;100.00
10466;BME280;5280;42.600;23.556;2023-06-26T01:49:13;93179.81;;;19.51;100.00
10466;BME280;5280;42.600;23.556;2023-06-26T01:51:47;93178.06;;;19.58;100.00
10466;BME280;5280;42.600;23.556;2023-06-26T01:54:20;93166.53;;;19.57;100.00
10466;BME280;5280;42.600;23.556;2023-06-26T01:56:50;93161.66;;;19.53;100.00
10466;BME280;5280;42.600;23.556;2023-06-26T01:59:21;93158.47;;;19.57;100.00
10466;BME280;5280;42.600;23.556;2023-06-26T02:01:49;93144.56;;;19.54;100.00
10466;BME280;5280;42.600;23.556;2023-06-26T02:04:16;93157.94;;;19.62;100.00
10466;BME280;5280;42.600;23.556;2023-06-26T02:06:43;93150.94;;;19.53;100.00
10466;BME280;5280;42.600;23.556;2023-06-26T02:09:09;93145.16;;;19.41;100.00
10466;BME280;5280;42.600;23.556;2023-06-26T02:11:36;93158.34;;;19.51;100.00
10466;BME280;5280;42.600;23.556;2023-06-26T02:14:03;93144.22;;;19.34;100.00
10466;BME280;5280;42.600;23.556;2023-06-26T02:16:31;93134.19;;;19.28;100.00
10466;BME280;5280;42.600;23.556;2023-06-26T02:18:59;93136.38;;;19.32;100.00
10466;BME280;5280;42.600;23.556;2023-06-26T02:21:25;93157.91;;;19.39;100.00
10466;BME280;5280;42.600;23.556;2023-06-26T02:23:52;93154.75;;;19.35;100.00
10466;BME280;5280;42.600;23.556;2023-06-26T02:26:19;93166.50;;;19.34;100.00
10466;BME280;5280;42.600;23.556;2023-06-26T02:28:46;93146.25;;;19.32;100.00
10466;BME280;5280;42.600;23.556;2023-06-26T02:31:13;93154.59;;;19.37;100.00
10466;BME280;5280;42.600;23.556;2023-06-26T02:33:43;93156.59;;;19.35;100.00
10466;BME280;5280;42.600;23.556;2023-06-26T02:36:11;93163.97;;;19.33;100.00
10466;BME280;5280;42.600;23.556;2023-06-26T02:38:37;93160.13;;;19.35;100.00
10466;BME280;5280;42.600;23.556;2023-06-26T02:41:04;93156.97;;;19.32;100.00
10466;BME280;5280;42.600;23.556;2023-06-26T02:43:31;93168.81;;;19.38;100.00
10466;BME280;5280;42.600;23.556;2023-06-26T02:45:58;93166.72;;;19.25;100.00
10466;BME280;5280;42.600;23.556;2023-06-26T02:48:25;93158.69;;;19.25;100.00
10466;BME280;5280;42.600;23.556;2023-06-26T02:50:53;93160.53;;;19.24;100.00
10466;BME280;5280;42.600;23.556;2023-06-26T02:53:20;93165.34;;;19.29;100.00
10466;BME280;5280;42.600;23.556;2023-06-26T02:55:46;93130.63;;;18.90;100.00
10466;BME280;5280;42.600;23.556;2023-06-26T02:58:13;93147.06;;;19.10;100.00
10466;BME280;5280;42.600;23.556;2023-06-26T03:00:40;93160.94;;;19.13;100.00
10466;BME280;5280;42.600;23.556;2023-06-26T03:03:08;93162.97;;;19.11;100.00
10466;BME280;5280;42.600;23.556;2023-06-26T03:05:35;93168.50;;;19.10;100.00
10466;BME280;5280;42.600;23.556;2023-06-26T03:08:04;93137.19;;;18.87;100.00
10466;BME280;5280;42.600;23.556;2023-06-26T03:10:31;93166.59;;;19.18;100.00
10466;BME280;5280;42.600;23.556;2023-06-26T03:12:58;93165.47;;;19.13;100.00
10466;BME280;5280;42.600;23.556;2023-06-26T03:15:27;93157.09;;;19.16;100.00
10466;BME280;5280;42.600;23.556;2023-06-26T03:17:54;93170.31;;;19.17;100.00
10466;BME280;5280;42.600;23.556;2023-06-26T03:20:21;93163.28;;;19.16;100.00
10466;BME280;5280;42.600;23.556;2023-06-26T03:22:47;93157.31;;;19.06;100.00
10466;BME280;5280;42.600;23.556;2023-06-26T03:25:16;93098.38;;;18.61;100.00
10466;BME280;5280;42.600;23.556;2023-06-26T03:27:43;93174.25;;;18.99;100.00
10466;BME280;5280;42.600;23.556;2023-06-26T03:30:11;93165.91;;;19.02;100.00
10466;BME280;5280;42.600;23.556;2023-06-26T03:32:38;93166.38;;;19.05;100.00
10466;BME280;5280;42.600;23.556;2023-06-26T03:35:07;93168.34;;;19.11;100.00
10466;BME280;5280;42.600;23.556;2023-06-26T03:37:34;93170.56;;;19.08;100.00
10466;BME280;5280;42.600;23.556;2023-06-26T03:40:01;93160.09;;;19.13;100.00
10466;BME280;5280;42.600;23.556;2023-06-26T03:42:31;93178.66;;;19.22;100.00
10466;BME280;5280;42.600;23.556;2023-06-26T03:44:58;93171.78;;;19.20;100.00
10466;BME280;5280;42.600;23.556;2023-06-26T03:47:25;93165.75;;;19.18;100.00
10466;BME280;5280;42.600;23.556;2023-06-26T03:49:52;93165.59;;;19.19;100.00
10466;BME280;5280;42.600;23.556;2023-06-26T03:52:19;93157.72;;;19.18;100.00
10466;BME280;5280;42.600;23.556;2023-06-26T03:54:46;93158.75;;;19.17;100.00
10466;BME280;5280;42.600;23.556;2023-06-26T03:57:14;93164.72;;;19.27;100.00
10466;BME280;5280;42.600;23.556;2023-06-26T03:59:42;93167.50;;;19.33;100.00
10466;BME280;5280;42.600;23.556;2023-06-26T04:02:09;93155.31;;;19.31;100.00
10466;BME280;5280;42.600;23.556;2023-06-26T04:04:38;93157.59;;;19.34;100.00
10466;BME280;5280;42.600;23.556;2023-06-26T04:07:05;93159.75;;;19.39;100.00
10466;BME280;5280;42.600;23.556;2023-06-26T04:09:32;93164.28;;;19.38;100.00
10466;BME280;5280;42.600;23.556;2023-06-26T04:11:59;93170.63;;;19.45;100.00
10466;BME280;5280;42.600;23.556;2023-06-26T04:14:26;93151.25;;;19.35;100.00
10466;BME280;5280;42.600;23.556;2023-06-26T04:16:54;93137.97;;;19.19;100.00
10466;BME280;5280;42.600;23.556;2023-06-26T04:19:23;93155.13;;;19.32;100.00
10466;BME280;5280;42.600;23.556;2023-06-26T04:21:50;93166.03;;;19.31;100.00
10466;BME280;5280;42.600;23.556;2023-06-26T04:24:16;93124.47;;;19.12;100.00
10466;BME280;5280;42.600;23.556;2023-06-26T04:26:43;93172.59;;;19.43;100.00
10466;BME280;5280;42.600;23.556;2023-06-26T04:29:10;93176.66;;;19.47;100.00
10466;BME280;5280;42.600;23.556;2023-06-26T04:31:39;93128.53;;;19.23;100.00
10466;BME280;5280;42.600;23.556;2023-06-26T04:34:08;93167.50;;;19.33;100.00
10466;BME280;5280;42.600;23.556;2023-06-26T04:36:34;93157.00;;;19.24;100.00
10466;BME280;5280;42.600;23.556;2023-06-26T04:39:04;93187.72;;;19.44;100.00
10466;BME280;5280;42.600;23.556;2023-06-26T04:41:31;93137.41;;;19.23;100.00
10466;BME280;5280;42.600;23.556;2023-06-26T04:43:58;93182.69;;;19.41;100.00
10466;BME280;5280;42.600;23.556;2023-06-26T04:46:27;93171.84;;;19.34;100.00
10466;BME280;5280;42.600;23.556;2023-06-26T04:48:54;93187.00;;;19.50;100.00
10466;BME280;5280;42.600;23.556;2023-06-26T04:51:24;93173.44;;;19.44;100.00
10466;BME280;5280;42.600;23.556;2023-06-26T04:53:52;93179.72;;;19.36;100.00
10466;BME280;5280;42.600;23.556;2023-06-26T04:56:19;93184.69;;;19.47;100.00
10466;BME280;5280;42.600;23.556;2023-06-26T04:58:46;93180.50;;;19.45;100.00
10466;BME280;5280;42.600;23.556;2023-06-26T05:01:13;93177.88;;;19.37;100.00
10466;BME280;5280;42.600;23.556;2023-06-26T05:03:40;93154.53;;;19.22;100.00
10466;BME280;5280;42.600;23.556;2023-06-26T05:06:07;93210.50;;;19.63;100.00
10466;BME280;5280;42.600;23.556;2023-06-26T05:08:35;93198.31;;;19.60;100.00
10466;BME280;5280;42.600;23.556;2023-06-26T05:11:02;93184.88;;;19.46;100.00
10466;BME280;5280;42.600;23.556;2023-06-26T05:13:29;93198.31;;;19.60;100.00
10466;BME280;5280;42.600;23.556;2023-06-26T05:15:56;93204.06;;;19.57;100.00
10466;BME280;5280;42.600;23.556;2023-06-26T05:18:23;93198.31;;;19.60;100.00
10466;BME280;5280;42.600;23.556;2023-06-26T05:20:50;93203.97;;;19.65;100.00
10466;BME280;5280;42.600;23.556;2023-06-26T05:23:17;93202.13;;;19.66;100.00
10466;BME280;5280;42.600;23.556;2023-06-26T05:25:47;93204.44;;;19.69;100.00
10466;BME280;5280;42.600;23.556;2023-06-26T05:28:15;93205.09;;;19.71;100.00
10466;BME280;5280;42.600;23.556;2023-06-26T05:30:43;93197.31;;;19.61;100.00
10466;BME280;5280;42.600;23.556;2023-06-26T05:33:11;93166.28;;;19.44;100.00
10466;BME280;5280;42.600;23.556;2023-06-26T05:35:39;93186.63;;;19.53;100.00
10466;BME280;5280;42.600;23.556;2023-06-26T05:38:06;93187.88;;;19.65;100.00
10466;BME280;5280;42.600;23.556;2023-06-26T05:40:34;93207.88;;;19.77;100.00
10466;BME280;5280;42.600;23.556;2023-06-26T05:43:03;93197.84;;;19.57;100.00
10466;BME280;5280;42.600;23.556;2023-06-26T05:45:30;93157.22;;;19.45;100.00
10466;BME280;5280;42.600;23.556;2023-06-26T05:47:57;93158.69;;;19.48;100.00
10466;BME280;5280;42.600;23.556;2023-06-26T05:50:25;93176.22;;;19.58;100.00
10466;BME280;5280;42.600;23.556;2023-06-26T05:52:53;93205.03;;;19.79;100.00
10466;BME280;5280;42.600;23.556;2023-06-26T05:55:20;93205.19;;;19.77;100.00
10466;BME280;5280;42.600;23.556;2023-06-26T05:57:48;93203.75;;;19.90;100.00
10466;BME280;5280;42.600;23.556;2023-06-26T06:00:18;93202.19;;;19.81;100.00
10466;BME280;5280;42.600;23.556;2023-06-26T06:02:45;93206.28;;;19.91;100.00
10466;BME280;5280;42.600;23.556;2023-06-26T06:05:12;93211.63;;;19.91;100.00
10466;BME280;5280;42.600;23.556;2023-06-26T06:07:39;93209.59;;;19.93;100.00
10466;BME280;5280;42.600;23.556;2023-06-26T06:10:06;93211.00;;;20.04;100.00
10466;BME280;5280;42.600;23.556;2023-06-26T06:12:33;93193.41;;;19.87;100.00
10466;BME280;5280;42.600;23.556;2023-06-26T06:15:00;93205.25;;;19.92;100.00
10466;BME280;5280;42.600;23.556;2023-06-26T06:17:28;93202.59;;;19.92;100.00
10466;BME280;5280;42.600;23.556;2023-06-26T06:19:55;93216.31;;;20.12;100.00
10466;BME280;5280;42.600;23.556;2023-06-26T06:22:22;93208.97;;;20.06;100.00
10466;BME280;5280;42.600;23.556;2023-06-26T06:24:50;93209.91;;;20.13;100.00
10466;BME280;5280;42.600;23.556;2023-06-26T06:27:17;93160.47;;;19.93;100.00
10466;BME280;5280;42.600;23.556;2023-06-26T06:29:44;93206.44;;;20.27;100.00
10466;BME280;5280;42.600;23.556;2023-06-26T06:32:11;93182.72;;;20.16;100.00
10466;BME280;5280;42.600;23.556;2023-06-26T06:34:39;93202.38;;;20.31;100.00
10466;BME280;5280;42.600;23.556;2023-06-26T06:37:06;93197.72;;;20.25;100.00
10466;BME280;5280;42.600;23.556;2023-06-26T06:39:36;93183.22;;;20.34;100.00
10466;BME280;5280;42.600;23.556;2023-06-26T06:42:05;93138.28;;;20.13;100.00
10466;BME280;5280;42.600;23.556;2023-06-26T06:44:33;93199.44;;;20.55;100.00
10466;BME280;5280;42.600;23.556;2023-06-26T06:47:00;93189.59;;;20.62;100.00
10466;BME280;5280;42.600;23.556;2023-06-26T06:49:27;93184.97;;;20.71;100.00
10466;BME280;5280;42.600;23.556;2023-06-26T06:52:02;93197.19;;;20.74;100.00
10466;BME280;5280;42.600;23.556;2023-06-26T06:54:29;93200.22;;;20.85;100.00
10466;BME280;5280;42.600;23.556;2023-06-26T06:56:56;93171.53;;;20.71;100.00
10466;BME280;5280;42.600;23.556;2023-06-26T06:59:23;93142.03;;;20.56;100.00
10466;BME280;5280;42.600;23.556;2023-06-26T07:01:51;93204.09;;;20.97;100.00
10466;BME280;5280;42.600;23.556;2023-06-26T07:04:21;93181.78;;;20.97;100.00
10466;BME280;5280;42.600;23.556;2023-06-26T07:06:52;93201.94;;;21.08;100.00
10466;BME280;5280;42.600;23.556;2023-06-26T07:09:21;93205.66;;;21.21;100.00
10466;BME280;5280;42.600;23.556;2023-06-26T07:11:48;93196.97;;;21.40;100.00
10466;BME280;5280;42.600;23.556;2023-06-26T07:14:15;93187.88;;;21.63;100.00
10466;BME280;5280;42.600;23.556;2023-06-26T07:16:42;93180.47;;;21.65;100.00
10466;BME280;5280;42.600;23.556;2023-06-26T07:19:08;93185.56;;;22.02;100.00
10466;BME280;5280;42.600;23.556;2023-06-26T07:21:38;93147.91;;;21.81;100.00
10466;BME280;5280;42.600;23.556;2023-06-26T07:24:06;93159.53;;;22.09;100.00
10466;BME280;5280;42.600;23.556;2023-06-26T07:26:35;93197.38;;;22.63;100.00
10466;BME280;5280;42.600;23.556;2023-06-26T07:29:02;93195.06;;;22.88;100.00
10466;BME280;5280;42.600;23.556;2023-06-26T07:31:29;93217.56;;;23.08;100.00
10466;BME280;5280;42.600;23.556;2023-06-26T07:33:56;93195.59;;;23.18;100.00
10466;BME280;5280;42.600;23.556;2023-06-26T07:36:23;93200.22;;;23.31;97.43
10466;BME280;5280;42.600;23.556;2023-06-26T07:38:51;93152.44;;;23.11;94.30
10466;BME280;5280;42.600;23.556;2023-06-26T07:41:20;93188.00;;;23.35;96.45
10466;BME280;5280;42.600;23.556;2023-06-26T07:43:49;93197.41;;;23.52;96.45
10466;BME280;5280;42.600;23.556;2023-06-26T07:46:15;93211.56;;;23.61;93.68
10466;BME280;5280;42.600;23.556;2023-06-26T07:48:42;93207.41;;;23.71;93.98
10466;BME280;5280;42.600;23.556;2023-06-26T07:51:11;93172.53;;;23.63;94.20
10466;BME280;5280;42.600;23.556;2023-06-26T07:53:39;93185.00;;;23.71;90.59
10466;BME280;5280;42.600;23.556;2023-06-26T07:56:06;93201.63;;;23.94;91.52
10466;BME280;5280;42.600;23.556;2023-06-26T07:58:33;93209.56;;;24.15;91.71
10466;BME280;5280;42.600;23.556;2023-06-26T08:01:02;93168.63;;;23.98;90.51
10466;BME280;5280;42.600;23.556;2023-06-26T08:03:29;93216.03;;;24.40;86.26
10466;BME280;5280;42.600;23.556;2023-06-26T08:05:56;93220.78;;;24.45;84.50
10466;BME280;5280;42.600;23.556;2023-06-26T08:08:22;93218.72;;;24.34;84.26
10466;BME280;5280;42.600;23.556;2023-06-26T08:10:51;93225.75;;;24.41;86.07
10466;BME280;5280;42.600;23.556;2023-06-26T08:13:19;93217.66;;;24.41;85.85
10466;BME280;5280;42.600;23.556;2023-06-26T08:15:46;93212.88;;;24.37;85.19
10466;BME280;5280;42.600;23.556;2023-06-26T08:18:15;93216.81;;;24.41;84.38
10466;BME280;5280;42.600;23.556;2023-06-26T08:20:42;93213.50;;;24.52;83.00
10466;BME280;5280;42.600;23.556;2023-06-26T08:23:09;93207.47;;;24.57;80.15
10466;BME280;5280;42.600;23.556;2023-06-26T08:25:36;93190.84;;;24.60;84.93
10466;BME280;5280;42.600;23.556;2023-06-26T08:28:07;93204.31;;;24.79;82.03
10466;BME280;5280;42.600;23.556;2023-06-26T08:30:34;93217.81;;;24.93;78.88
10466;BME280;5280;42.600;23.556;2023-06-26T08:33:01;93222.00;;;24.89;81.05
10466;BME280;5280;42.600;23.556;2023-06-26T08:35:30;93215.13;;;24.79;79.96
10466;BME280;5280;42.600;23.556;2023-06-26T08:37:56;93217.84;;;24.73;79.46
10466;BME280;5280;42.600;23.556;2023-06-26T08:40:24;93207.25;;;24.65;79.24
10466;BME280;5280;42.600;23.556;2023-06-26T08:42:55;93213.25;;;24.67;81.99
10466;BME280;5280;42.600;23.556;2023-06-26T08:45:22;93217.78;;;24.86;80.63
10466;BME280;5280;42.600;23.556;2023-06-26T08:47:52;93198.25;;;24.97;82.35
10466;BME280;5280;42.600;23.556;2023-06-26T08:50:23;93206.16;;;25.05;74.82
10466;BME280;5280;42.600;23.556;2023-06-26T08:52:54;93188.47;;;25.03;76.73
10466;BME280;5280;42.600;23.556;2023-06-26T08:55:23;93163.16;;;24.91;75.30
10466;BME280;5280;42.600;23.556;2023-06-26T08:57:54;93199.84;;;25.18;73.87
10466;BME280;5280;42.600;23.556;2023-06-26T09:00:21;93190.69;;;25.25;75.95
10466;BME280;5280;42.600;23.556;2023-06-26T09:02:49;93205.34;;;25.49;74.97
10466;BME280;5280;42.600;23.556;2023-06-26T09:05:19;93205.09;;;25.51;76.40
10466;BME280;5280;42.600;23.556;2023-06-26T09:07:48;93189.34;;;25.41;69.71
10466;BME280;5280;42.600;23.556;2023-06-26T09:10:16;93190.31;;;25.53;69.86
10466;BME280;5280;42.600;23.556;2023-06-26T09:12:46;93178.66;;;25.53;71.22
10466;BME280;5280;42.600;23.556;2023-06-26T09:15:14;93161.88;;;25.44;69.21
10466;BME280;5280;42.600;23.556;2023-06-26T09:17:42;93187.22;;;25.56;71.59
10466;BME280;5280;42.600;23.556;2023-06-26T09:20:09;93179.31;;;25.55;70.80
10466;BME280;5280;42.600;23.556;2023-06-26T09:22:38;93189.28;;;25.54;70.28
10466;BME280;5280;42.600;23.556;2023-06-26T09:25:06;93158.63;;;25.22;69.28
10466;BME280;5280;42.600;23.556;2023-06-26T09:27:34;93203.50;;;25.43;68.06
10466;BME280;5280;42.600;23.556;2023-06-26T09:30:02;93195.19;;;25.38;68.87
10466;BME280;5280;42.600;23.556;2023-06-26T09:32:29;93190.31;;;25.15;69.93
10466;BME280;5280;42.600;23.556;2023-06-26T09:34:56;93192.00;;;25.10;72.41
10466;BME280;5280;42.600;23.556;2023-06-26T09:37:23;93192.13;;;25.28;72.51
10466;BME280;5280;42.600;23.556;2023-06-26T09:39:50;93176.91;;;25.27;73.67
10466;BME280;5280;42.600;23.556;2023-06-26T09:42:17;93172.25;;;25.47;76.20
10466;BME280;5280;42.600;23.556;2023-06-26T09:44:47;93187.75;;;25.71;75.75
10466;BME280;5280;42.600;23.556;2023-06-26T09:47:16;93191.66;;;25.76;67.79
10466;BME280;5280;42.600;23.556;2023-06-26T09:49:44;93191.84;;;25.81;69.31
10466;BME280;5280;42.600;23.556;2023-06-26T09:52:14;93173.72;;;25.81;67.70
10466;BME280;5280;42.600;23.556;2023-06-26T09:54:42;93181.91;;;25.75;59.39
10466;BME280;5280;42.600;23.556;2023-06-26T09:57:11;93177.50;;;25.80;65.54
10466;BME280;5280;42.600;23.556;2023-06-26T09:59:40;93188.03;;;25.95;63.59
10466;BME280;5280;42.600;23.556;2023-06-26T10:02:08;93188.41;;;25.98;60.98
10466;BME280;5280;42.600;23.556;2023-06-26T10:04:36;93189.84;;;26.01;61.07
10466;BME280;5280;42.600;23.556;2023-06-26T10:07:05;93173.25;;;25.91;61.89
10466;BME280;5280;42.600;23.556;2023-06-26T10:09:32;93181.69;;;26.07;62.59
10466;BME280;5280;42.600;23.556;2023-06-26T10:12:02;93169.66;;;25.97;57.96
10466;BME280;5280;42.600;23.556;2023-06-26T10:14:33;93164.88;;;25.99;60.29
10466;BME280;5280;42.600;23.556;2023-06-26T10:17:03;93170.63;;;26.09;61.13
10466;BME280;5280;42.600;23.556;2023-06-26T10:19:35;93155.22;;;26.09;64.84
10466;BME280;5280;42.600;23.556;2023-06-26T10:22:05;93166.75;;;26.30;63.02
10466;BME280;5280;42.600;23.556;2023-06-26T10:24:35;93160.19;;;26.37;61.19
10466;BME280;5280;42.600;23.556;2023-06-26T10:27:04;93131.16;;;26.20;58.37
10466;BME280;5280;42.600;23.556;2023-06-26T10:29:35;93148.41;;;26.25;62.28
10466;BME280;5280;42.600;23.556;2023-06-26T10:32:04;93161.69;;;26.33;63.02
10466;BME280;5280;42.600;23.556;2023-06-26T10:34:34;93154.81;;;26.31;63.48
10466;BME280;5280;42.600;23.556;2023-06-26T10:37:02;93161.31;;;26.30;63.34
10466;BME280;5280;42.600;23.556;2023-06-26T10:39:46;93155.88;;;26.05;64.97
10466;BME280;5280;42.600;23.556;2023-06-26T10:42:15;93158.97;;;26.08;64.76
10466;BME280;5280;42.600;23.556;2023-06-26T10:44:45;93153.38;;;26.03;63.32
10466;BME280;5280;42.600;23.556;2023-06-26T10:47:29;93154.41;;;26.02;62.26
10466;BME280;5280;42.600;23.556;2023-06-26T10:50:16;93080.94;;;25.67;64.25
10466;BME280;5280;42.600;23.556;2023-06-26T10:52:43;93167.25;;;25.89;63.95
10466;BME280;5280;42.600;23.556;2023-06-26T10:55:10;93174.38;;;25.77;65.34
10466;BME280;5280;42.600;23.556;2023-06-26T10:57:37;93172.38;;;25.65;61.04
10466;BME280;5280;42.600;23.556;2023-06-26T11:00:09;93108.34;;;25.08;62.63
10466;BME280;5280;42.600;23.556;2023-06-26T11:02:47;93161.97;;;25.18;65.46
10466;BME280;5280;42.600;23.556;2023-06-26T11:05:25;93170.38;;;24.97;65.21
10466;BME280;5280;42.600;23.556;2023-06-26T11:08:06;93159.41;;;24.78;67.67
10466;BME280;5280;42.600;23.556;2023-06-26T11:10:50;93167.13;;;24.68;71.10
10466;BME280;5280;42.600;23.556;2023-06-26T11:13:21;93162.53;;;24.75;71.56
10466;BME280;5280;42.600;23.556;2023-06-26T11:15:49;93157.53;;;24.72;68.14
10466;BME280;5280;42.600;23.556;2023-06-26T11:18:17;93168.38;;;24.59;66.83
10466;BME280;5280;42.600;23.556;2023-06-26T11:20:45;93076.59;;;24.13;68.08
10466;BME280;5280;42.600;23.556;2023-06-26T11:23:12;93157.19;;;24.49;69.39
10466;BME280;5280;42.600;23.556;2023-06-26T11:25:40;93096.13;;;24.09;68.37
10466;BME280;5280;42.600;23.556;2023-06-26T11:28:09;93154.69;;;24.48;66.16
10466;BME280;5280;42.600;23.556;2023-06-26T11:30:36;93155.31;;;24.43;71.07
10466;BME280;5280;42.600;23.556;2023-06-26T11:33:05;93171.31;;;24.38;72.31
10466;BME280;5280;42.600;23.556;2023-06-26T11:35:32;93165.28;;;24.42;74.49
10466;BME280;5280;42.600;23.556;2023-06-26T11:38:02;93160.91;;;24.41;74.68
10466;BME280;5280;42.600;23.556;2023-06-26T11:40:31;93170.50;;;24.31;74.16
10466;BME280;5280;42.600;23.556;2023-06-26T11:43:00;93147.63;;;24.27;73.70
10466;BME280;5280;42.600;23.556;2023-06-26T11:45:29;93170.69;;;24.42;75.11
10466;BME280;5280;42.600;23.556;2023-06-26T11:47:56;93174.66;;;24.40;72.12
10466;BME280;5280;42.600;23.556;2023-06-26T11:50:24;93165.50;;;24.41;72.94
10466;BME280;5280;42.600;23.556;2023-06-26T11:52:54;93156.78;;;24.46;73.23
10466;BME280;5280;42.600;23.556;2023-06-26T11:55:24;93172.75;;;24.54;74.88
10466;BME280;5280;42.600;23.556;2023-06-26T11:57:53;93170.50;;;24.51;71.80
10466;BME280;5280;42.600;23.556;2023-06-26T12:00:21;93168.19;;;24.54;72.10
10466;BME280;5280;42.600;23.556;2023-06-26T12:02:48;93161.94;;;24.47;71.68
10466;BME280;5280;42.600;23.556;2023-06-26T12:05:17;93134.34;;;24.32;69.15
10466;BME280;5280;42.600;23.556;2023-06-26T12:07:46;93154.28;;;24.37;70.73
10466;BME280;5280;42.600;23.556;2023-06-26T12:10:14;93156.78;;;24.46;71.38
10466;BME280;5280;42.600;23.556;2023-06-26T12:12:43;93166.31;;;24.48;70.95
10466;BME280;5280;42.600;23.556;2023-06-26T12:15:13;93162.78;;;24.48;71.04
10466;BME280;5280;42.600;23.556;2023-06-26T12:17:40;93162.19;;;24.39;75.43
10466;BME280;5280;42.600;23.556;2023-06-26T12:20:17;93165.09;;;24.37;72.17
10466;BME280;5280;42.600;23.556;2023-06-26T12:22:46;93144.94;;;24.33;72.04
10466;BME280;5280;42.600;23.556;2023-06-26T12:25:14;93121.88;;;24.31;72.27
10466;BME280;5280;42.600;23.556;2023-06-26T12:27:44;93141.16;;;24.54;72.82
10466;BME280;5280;42.600;23.556;2023-06-26T12:30:11;93153.78;;;24.73;67.95
10466;BME280;5280;42.600;23.556;2023-06-26T12:32:38;93151.53;;;24.70;69.77
10466;BME280;5280;42.600;23.556;2023-06-26T12:35:05;93149.63;;;24.77;65.64
10466;BME280;5280;42.600;23.556;2023-06-26T12:37:36;93158.16;;;24.74;66.45
10466;BME280;5280;42.600;23.556;2023-06-26T12:40:16;93143.22;;;24.65;66.38
10466;BME280;5280;42.600;23.556;2023-06-26T12:42:45;93154.38;;;24.82;67.13
10466;BME280;5280;42.600;23.556;2023-06-26T12:45:13;93152.50;;;24.82;69.10
10466;BME280;5280;42.600;23.556;2023-06-26T12:47:40;93143.38;;;24.83;69.97
10466;BME280;5280;42.600;23.556;2023-06-26T12:50:08;93100.38;;;24.62;66.78
10466;BME280;5280;42.600;23.556;2023-06-26T12:52:35;93110.53;;;24.80;65.51
10466;BME280;5280;42.600;23.556;2023-06-26T12:55:02;93153.00;;;25.24;66.33
10466;BME280;5280;42.600;23.556;2023-06-26T12:57:29;93155.84;;;25.36;66.46
10466;BME280;5280;42.600;23.556;2023-06-26T12:59:57;93156.88;;;25.41;62.53
10466;BME280;5280;42.600;23.556;2023-06-26T13:02:26;93151.50;;;25.35;62.17